Time;durP1;ratioP1;P1;durP2;ratioP2;P2;SDS_P1;SDS_P2;PMS_P1;PMS_P2;Temp;Humidity;BMP_temperature;BMP_pressure;BME280_temperature;BME280_humidity;BME280_pressure;Samples;Min_cycle;Max_cycle;Signal;HPM_P1;HPM_P2
2023/03/12 00:01:22;;;;;;;1.55;1.17;;;16.20;70.10;;;;;;5003413;28;20135;-71
2023/03/12 00:03:48;;;;;;;1.50;0.80;;;16.20;70.20;;;;;;5004774;28;20050;-71
2023/03/12 00:06:15;;;;;;;1.15;0.70;;;16.20;70.10;;;;;;5038887;28;20049;-71
2023/03/12 00:08:40;;;;;;;1.15;0.73;;;16.20;70.30;;;;;;5004314;28;20041;-70
2023/03/12 00:11:07;;;;;;;0.80;0.80;;;16.20;70.30;;;;;;5006370;28;20050;-71
2023/03/12 00:13:33;;;;;;;1.60;0.95;;;16.20;70.10;;;;;;4987463;28;20049;-70
2023/03/12 00:16:06;;;;;;;1.00;0.88;;;16.20;70.40;;;;;;5005329;28;20042;-71
2023/03/12 00:18:32;;;;;;;0.93;0.80;;;16.20;70.20;;;;;;5005632;28;20108;-71
2023/03/12 00:20:58;;;;;;;0.88;0.80;;;16.20;70.10;;;;;;5004902;28;20037;-71
2023/03/12 00:23:23;;;;;;;1.15;0.65;;;16.20;69.90;;;;;;5005462;28;20052;-71
2023/03/12 00:25:49;;;;;;;1.33;0.95;;;16.20;70.10;;;;;;5004860;28;20046;-71
2023/03/12 00:28:14;;;;;;;1.60;0.90;;;16.20;70.10;;;;;;5005644;28;20111;-71
2023/03/12 00:30:41;;;;;;;1.50;0.80;;;16.20;70.10;;;;;;5006123;28;20046;-71
2023/03/12 00:33:06;;;;;;;1.27;0.90;;;16.20;70.10;;;;;;5004158;28;20499;-72
2023/03/12 00:35:32;;;;;;;2.65;0.75;;;16.10;70.10;;;;;;5004564;28;20052;-71
2023/03/12 00:37:58;;;;;;;1.05;0.77;;;16.20;70.10;;;;;;5005291;28;20175;-71
2023/03/12 00:40:23;;;;;;;1.92;1.00;;;16.20;70.20;;;;;;5001122;28;20050;-71
2023/03/12 00:42:49;;;;;;;1.10;0.75;;;16.20;70.20;;;;;;5005753;28;20042;-71
2023/03/12 00:45:14;;;;;;;1.30;0.70;;;16.20;70.10;;;;;;5020294;28;20507;-72
2023/03/12 00:47:40;;;;;;;1.67;1.00;;;16.10;70.20;;;;;;5004536;28;20038;-71
2023/03/12 00:50:06;;;;;;;1.55;1.02;;;16.20;70.10;;;;;;5005114;28;20459;-72
2023/03/12 00:52:31;;;;;;;0.98;0.68;;;16.20;70.00;;;;;;5003441;28;20042;-71
2023/03/12 00:54:57;;;;;;;1.48;0.88;;;16.10;70.00;;;;;;5003327;28;20533;-71
2023/03/12 00:57:23;;;;;;;3.33;1.10;;;16.20;70.00;;;;;;5005186;28;20045;-71
2023/03/12 00:59:49;;;;;;;1.50;1.02;;;16.10;69.90;;;;;;5005449;28;20045;-71
2023/03/12 01:02:14;;;;;;;1.27;0.60;;;16.20;70.00;;;;;;5005166;28;20506;-71
2023/03/12 01:04:40;;;;;;;3.22;0.88;;;16.20;70.10;;;;;;5004147;28;20084;-70
2023/03/12 01:07:06;;;;;;;1.02;0.85;;;16.10;70.00;;;;;;5005614;28;20084;-72
2023/03/12 01:09:31;;;;;;;1.42;1.33;;;16.10;70.00;;;;;;5010326;28;20419;-70
2023/03/12 01:11:57;;;;;;;0.90;0.70;;;16.10;70.20;;;;;;5009570;28;20125;-70
2023/03/12 01:14:23;;;;;;;0.82;0.77;;;16.10;69.90;;;;;;5007183;28;20499;-71
2023/03/12 01:16:48;;;;;;;1.23;0.93;;;16.10;70.10;;;;;;5009731;28;20060;-70
2023/03/12 01:19:14;;;;;;;2.15;1.20;;;16.10;69.80;;;;;;5008599;28;20100;-71
2023/03/12 01:21:39;;;;;;;1.25;1.08;;;16.00;69.80;;;;;;5009638;28;20050;-70
2023/03/12 01:24:06;;;;;;;1.17;0.80;;;16.10;69.80;;;;;;5006935;28;20050;-70
2023/03/12 01:26:31;;;;;;;1.17;0.80;;;16.10;70.10;;;;;;5006772;28;20100;-70
2023/03/12 01:28:57;;;;;;;1.60;0.93;;;16.10;70.00;;;;;;5008915;28;20047;-70
2023/03/12 01:31:22;;;;;;;1.80;1.00;;;16.10;69.80;;;;;;5022180;28;20042;-71
2023/03/12 01:33:49;;;;;;;2.35;1.25;;;16.10;69.70;;;;;;5009808;28;20038;-71
2023/03/12 01:36:25;;;;;;;1.10;0.80;;;16.10;69.80;;;;;;5005430;28;20034;-71
2023/03/12 01:38:52;;;;;;;1.63;0.98;;;16.10;69.80;;;;;;4991891;28;20511;-71
2023/03/12 01:41:18;;;;;;;0.82;0.80;;;16.00;69.80;;;;;;5007092;28;20111;-70
2023/03/12 01:43:44;;;;;;;2.47;1.10;;;16.10;69.70;;;;;;5007949;28;20042;-70
2023/03/12 01:46:34;;;;;;;1.40;0.90;;;16.00;69.60;;;;;;5022521;28;20045;-71
2023/03/12 01:49:07;;;;;;;1.67;0.80;;;16.10;69.80;;;;;;5003610;28;20053;-70
2023/03/12 01:51:53;;;;;;;1.15;0.70;;;16.10;69.60;;;;;;5008965;28;20050;-70
2023/03/12 01:54:22;;;;;;;1.27;0.80;;;16.00;69.60;;;;;;5008412;28;20053;-71
2023/03/12 01:56:48;;;;;;;1.27;0.88;;;16.00;69.60;;;;;;5006313;28;20566;-70
2023/03/12 01:59:22;;;;;;;1.23;0.75;;;16.10;69.60;;;;;;5003967;28;20042;-71
2023/03/12 02:01:48;;;;;;;;;;;16.00;69.60;;;;;;5007166;28;20088;-71
2023/03/12 02:04:15;;;;;;;1.83;1.30;;;16.00;69.80;;;;;;5038838;28;19944;-71
2023/03/12 02:06:56;;;;;;;1.20;0.77;;;16.00;69.60;;;;;;4992709;28;20038;-71
2023/03/12 02:09:22;;;;;;;1.17;0.82;;;16.00;69.70;;;;;;4991837;28;20042;-71
2023/03/12 02:11:48;;;;;;;1.10;0.80;;;16.00;70.10;;;;;;5005772;28;20052;-71
2023/03/12 02:14:13;;;;;;;1.42;0.98;;;16.00;69.90;;;;;;4989022;28;20037;-70
2023/03/12 02:16:39;;;;;;;1.42;0.80;;;16.00;69.80;;;;;;5023542;28;20439;-71
2023/03/12 02:19:07;;;;;;;1.35;0.77;;;16.00;69.70;;;;;;5036171;28;20081;-70
2023/03/12 02:21:34;;;;;;;1.75;0.80;;;16.00;69.70;;;;;;5006060;28;20450;-70
2023/03/12 02:24:20;;;;;;;1.33;1.23;;;16.00;70.10;;;;;;5006694;28;20057;-70
2023/03/12 02:26:45;;;;;;;1.75;0.98;;;16.00;69.80;;;;;;5006778;28;20038;-70
2023/03/12 02:29:11;;;;;;;1.30;0.95;;;16.00;69.80;;;;;;5004784;28;20052;-71
2023/03/12 02:31:42;;;;;;;1.00;0.70;;;16.00;69.70;;;;;;5006553;28;20042;-71
2023/03/12 02:34:08;;;;;;;1.35;1.05;;;16.00;69.90;;;;;;5037568;28;20595;-70
2023/03/12 02:36:34;;;;;;;1.45;1.10;;;16.00;69.80;;;;;;5007371;28;20121;-70
2023/03/12 02:38:59;;;;;;;1.13;0.82;;;16.00;69.70;;;;;;5007618;28;20424;-70
2023/03/12 02:41:33;;;;;;;2.00;1.10;;;16.00;69.80;;;;;;5007024;28;20089;-71
2023/03/12 02:44:10;;;;;;;0.95;0.70;;;16.00;70.00;;;;;;5007972;28;20033;-71
2023/03/12 02:46:46;;;;;;;1.95;0.80;;;16.00;69.90;;;;;;5007367;28;20530;-71
2023/03/12 02:49:12;;;;;;;1.73;1.02;;;16.00;70.10;;;;;;5006164;28;20065;-73
2023/03/12 02:51:39;;;;;;;1.27;1.00;;;16.00;70.00;;;;;;5038028;28;20073;-71
2023/03/12 02:54:05;;;;;;;1.08;0.88;;;16.00;70.10;;;;;;5007189;28;20129;-71
2023/03/12 02:56:30;;;;;;;1.25;0.90;;;16.00;70.20;;;;;;5005085;28;20121;-70
2023/03/12 02:58:56;;;;;;;1.38;0.95;;;16.00;69.80;;;;;;5022608;28;20048;-71
2023/03/12 03:01:22;;;;;;;1.00;0.88;;;16.00;70.10;;;;;;5004445;28;20049;-71
2023/03/12 03:03:47;;;;;;;1.88;0.85;;;16.00;70.00;;;;;;5005831;28;20554;-71
2023/03/12 03:06:13;;;;;;;1.98;1.05;;;15.90;69.70;;;;;;5007437;28;20411;-72
2023/03/12 03:08:39;;;;;;;1.40;1.02;;;15.90;70.00;;;;;;5002926;28;20456;-71
2023/03/12 03:11:05;;;;;;;1.60;1.10;;;16.00;70.20;;;;;;5002812;28;20050;-71
2023/03/12 03:13:30;;;;;;;1.17;0.93;;;15.90;69.80;;;;;;5007217;28;20050;-71
2023/03/12 03:15:58;;;;;;;1.15;0.73;;;15.90;70.20;;;;;;5007671;28;20133;-71
2023/03/12 03:18:24;;;;;;;1.33;0.75;;;15.90;70.10;;;;;;5007035;28;20041;-71
2023/03/12 03:20:57;;;;;;;1.00;0.80;;;16.00;69.60;;;;;;5022372;28;20050;-71
2023/03/12 03:23:22;;;;;;;1.35;0.90;;;15.90;69.50;;;;;;5006832;28;20060;-71
2023/03/12 03:25:48;;;;;;;1.38;0.85;;;16.00;69.90;;;;;;5005080;28;20042;-71
2023/03/12 03:28:13;;;;;;;1.20;0.80;;;16.00;69.70;;;;;;5006113;28;20080;-73
2023/03/12 03:30:39;;;;;;;1.27;0.88;;;15.90;69.60;;;;;;5039720;28;20176;-71
2023/03/12 03:33:05;;;;;;;1.17;0.82;;;15.90;70.10;;;;;;5006229;28;20050;-71
2023/03/12 03:35:32;;;;;;;1.05;0.70;;;15.90;69.90;;;;;;5004830;28;20088;-71
2023/03/12 03:37:57;;;;;;;1.20;0.80;;;15.90;70.00;;;;;;5002965;28;20050;-71
2023/03/12 03:40:23;;;;;;;1.30;1.00;;;15.90;70.00;;;;;;5005861;28;20061;-71
2023/03/12 03:42:49;;;;;;;1.88;1.13;;;15.90;70.00;;;;;;5007880;28;20053;-71
2023/03/12 03:45:14;;;;;;;1.35;0.60;;;15.90;70.30;;;;;;5004687;28;20056;-71
2023/03/12 03:47:40;;;;;;;1.33;0.90;;;15.90;70.10;;;;;;5004837;28;20495;-71
2023/03/12 03:50:06;;;;;;;2.22;1.00;;;15.90;69.80;;;;;;5004807;28;20129;-71
2023/03/12 03:52:31;;;;;;;1.95;1.17;;;15.90;69.90;;;;;;5005370;28;20515;-71
2023/03/12 03:54:58;;;;;;;1.67;0.98;;;15.90;69.90;;;;;;5006675;28;20503;-71
2023/03/12 03:57:24;;;;;;;1.23;0.80;;;15.90;70.20;;;;;;5004692;28;20474;-71
2023/03/12 03:59:50;;;;;;;1.40;0.82;;;15.90;70.20;;;;;;5035773;28;20041;-71
2023/03/12 04:02:16;;;;;;;1.38;0.85;;;16.00;69.90;;;;;;5002684;28;20045;-73
2023/03/12 04:04:42;;;;;;;1.05;0.80;;;15.90;69.70;;;;;;5017158;28;20042;-70
2023/03/12 04:07:07;;;;;;;1.38;0.82;;;15.90;69.90;;;;;;5001133;28;20545;-70
2023/03/12 04:09:33;;;;;;;1.20;0.82;;;15.90;70.10;;;;;;5006760;28;20049;-71
2023/03/12 04:11:59;;;;;;;1.30;0.82;;;15.90;69.90;;;;;;5038035;28;20046;-71
2023/03/12 04:14:24;;;;;;;1.90;0.90;;;15.90;70.30;;;;;;5003526;28;20080;-71
2023/03/12 04:16:50;;;;;;;1.38;0.70;;;15.90;70.10;;;;;;5004118;28;20065;-71
2023/03/12 04:19:15;;;;;;;1.30;0.73;;;15.90;70.00;;;;;;5006815;28;20046;-71
2023/03/12 04:21:41;;;;;;;1.38;0.60;;;15.90;70.20;;;;;;5005493;28;20042;-71
2023/03/12 04:24:07;;;;;;;0.90;0.75;;;15.90;70.30;;;;;;5006624;28;20040;-70
2023/03/12 04:26:33;;;;;;;1.40;0.93;;;15.90;70.30;;;;;;4987204;28;20137;-71
2023/03/12 04:28:59;;;;;;;1.35;0.98;;;15.90;70.10;;;;;;5005735;28;20181;-71
2023/03/12 04:31:25;;;;;;;1.23;0.90;;;15.90;70.10;;;;;;5000747;28;20115;-71
2023/03/12 04:33:51;;;;;;;1.95;1.00;;;15.90;69.80;;;;;;5004026;28;20113;-71
2023/03/12 04:36:16;;;;;;;1.42;0.77;;;15.90;69.90;;;;;;5005140;28;20067;-70
2023/03/12 04:38:42;;;;;;;1.00;0.80;;;15.90;70.20;;;;;;5005977;28;20053;-70
2023/03/12 04:41:10;;;;;;;1.05;0.68;;;15.90;70.20;;;;;;4987307;28;20507;-70
2023/03/12 04:43:36;;;;;;;0.82;0.73;;;15.90;69.80;;;;;;5019849;28;20037;-71
2023/03/12 04:46:01;;;;;;;1.85;1.00;;;15.90;69.80;;;;;;5005094;28;20038;-70
2023/03/12 04:48:27;;;;;;;1.35;1.05;;;15.90;70.10;;;;;;5006650;28;20454;-71
2023/03/12 04:50:53;;;;;;;1.67;0.98;;;15.90;69.70;;;;;;5001616;28;20038;-70
2023/03/12 04:53:18;;;;;;;1.73;1.25;;;15.90;69.80;;;;;;5005852;28;20095;-71
2023/03/12 04:55:44;;;;;;;1.35;0.77;;;15.90;69.80;;;;;;5000836;28;20080;-71
2023/03/12 04:58:09;;;;;;;1.27;0.90;;;15.90;69.60;;;;;;5004667;28;20095;-71
2023/03/12 05:00:35;;;;;;;1.30;0.88;;;15.90;69.70;;;;;;5003599;28;20041;-71
2023/03/12 05:03:01;;;;;;;1.48;0.98;;;15.90;70.00;;;;;;5004764;28;20061;-71
2023/03/12 05:05:27;;;;;;;1.00;0.90;;;15.90;69.60;;;;;;5003019;28;20565;-72
2023/03/12 05:07:52;;;;;;;1.42;1.15;;;15.90;70.20;;;;;;5019041;28;20050;-71
2023/03/12 05:10:18;;;;;;;1.08;0.80;;;15.90;69.60;;;;;;5004747;28;20034;-71
2023/03/12 05:12:43;;;;;;;1.05;0.90;;;15.90;70.30;;;;;;5001883;28;20050;-71
2023/03/12 05:15:09;;;;;;;4.20;1.40;;;15.90;70.30;;;;;;5004336;28;20426;-71
2023/03/12 05:17:35;;;;;;;4.10;1.88;;;15.90;69.90;;;;;;5019987;28;20045;-71
2023/03/12 05:20:00;;;;;;;3.83;1.48;;;15.90;69.60;;;;;;5020410;28;20077;-71
2023/03/12 05:22:26;;;;;;;2.65;1.80;;;15.80;69.50;;;;;;5005564;28;20053;-71
2023/03/12 05:24:51;;;;;;;2.00;1.25;;;15.90;69.60;;;;;;5006769;28;20132;-71
2023/03/12 05:27:17;;;;;;;2.83;1.10;;;15.80;69.90;;;;;;5005060;28;20034;-71
2023/03/12 05:29:43;;;;;;;1.63;0.98;;;15.80;70.10;;;;;;5000793;28;20046;-71
2023/03/12 05:32:08;;;;;;;1.70;1.15;;;15.80;70.10;;;;;;5006522;28;20042;-71
2023/03/12 05:34:34;;;;;;;1.30;1.13;;;15.90;70.00;;;;;;5005466;28;20033;-71
2023/03/12 05:37:00;;;;;;;1.38;1.00;;;15.90;70.20;;;;;;5006397;28;20046;-71
2023/03/12 05:39:25;;;;;;;1.83;1.40;;;15.90;70.00;;;;;;5005449;28;20451;-71
2023/03/12 05:41:56;;;;;;;2.75;1.10;;;15.90;70.40;;;;;;5006526;28;20475;-71
2023/03/12 05:44:22;;;;;;;2.42;1.23;;;15.80;70.60;;;;;;4989853;28;20034;-71
2023/03/12 05:46:48;;;;;;;1.30;1.20;;;15.80;70.40;;;;;;4985767;28;20042;-71
2023/03/12 05:49:14;;;;;;;2.10;1.10;;;15.80;70.40;;;;;;5019481;28;20041;-71
2023/03/12 05:51:39;;;;;;;1.88;1.15;;;15.80;70.20;;;;;;5005846;28;20077;-71
2023/03/12 05:54:05;;;;;;;2.10;0.93;;;15.80;70.80;;;;;;5007466;28;20135;-71
2023/03/12 05:56:31;;;;;;;1.77;1.10;;;15.80;70.50;;;;;;5006317;28;20149;-71
2023/03/12 05:58:56;;;;;;;1.90;1.13;;;15.90;70.50;;;;;;5009225;28;20137;-71
2023/03/12 06:01:24;;;;;;;1.17;1.00;;;15.80;69.90;;;;;;5008352;28;20046;-71
2023/03/12 06:03:49;;;;;;;2.55;1.27;;;15.80;70.50;;;;;;5021555;28;20124;-71
2023/03/12 06:06:16;;;;;;;2.40;1.33;;;15.80;69.90;;;;;;5008581;28;20141;-71
2023/03/12 06:08:41;;;;;;;4.25;1.10;;;15.80;70.50;;;;;;5056658;28;20128;-71
2023/03/12 06:11:08;;;;;;;1.85;1.33;;;15.80;70.30;;;;;;5005686;28;20117;-71
2023/03/12 06:13:33;;;;;;;2.05;1.02;;;15.80;70.50;;;;;;4988956;28;20046;-71
2023/03/12 06:16:16;;;;;;;1.35;1.20;;;15.80;69.90;;;;;;5006605;28;20220;-71
2023/03/12 06:18:42;;;;;;;2.10;1.55;;;15.80;70.20;;;;;;5001671;28;20050;-70
2023/03/12 06:21:14;;;;;;;1.55;1.10;;;15.80;70.10;;;;;;5004801;28;20092;-70
2023/03/12 06:23:40;;;;;;;1.75;1.25;;;15.80;70.00;;;;;;5007068;28;20077;-71
2023/03/12 06:26:06;;;;;;;2.38;1.10;;;15.80;70.10;;;;;;5007846;28;20073;-71
2023/03/12 06:28:32;;;;;;;1.33;1.13;;;15.80;70.00;;;;;;5007199;28;20671;-71
2023/03/12 06:30:57;;;;;;;1.92;1.33;;;15.80;70.20;;;;;;5008114;28;20050;-71
2023/03/12 06:33:23;;;;;;;2.00;1.10;;;15.80;69.90;;;;;;5009620;28;20467;-71
2023/03/12 06:35:51;;;;;;;5.55;1.27;;;15.80;70.10;;;;;;4989278;28;20042;-71
2023/03/12 06:38:17;;;;;;;2.95;1.52;;;15.80;70.60;;;;;;5004583;28;20141;-72
2023/03/12 06:40:43;;;;;;;1.40;1.00;;;15.90;70.20;;;;;;5006711;28;20136;-72
2023/03/12 06:43:11;;;;;;;2.03;1.10;;;15.80;70.40;;;;;;5006319;28;20543;-71
2023/03/12 06:45:36;;;;;;;1.58;1.02;;;15.80;70.00;;;;;;5007689;28;21141;-71
2023/03/12 06:48:02;;;;;;;2.60;1.30;;;15.70;70.20;;;;;;5008140;28;20113;-71
2023/03/12 06:50:28;;;;;;;1.30;1.20;;;15.70;70.10;;;;;;5004622;28;20522;-72
2023/03/12 06:52:54;;;;;;;2.42;1.30;;;15.80;70.10;;;;;;5039811;28;20046;-71
2023/03/12 06:55:19;;;;;;;1.80;1.00;;;15.70;70.00;;;;;;5008630;28;20129;-71
2023/03/12 06:57:45;;;;;;;2.58;1.20;;;15.80;70.10;;;;;;5006119;28;20054;-71
2023/03/12 07:00:11;;;;;;;1.42;1.13;;;15.80;70.80;;;;;;5007737;28;20457;-70
2023/03/12 07:02:36;;;;;;;3.55;1.08;;;15.80;70.50;;;;;;5004813;28;20526;-72
2023/03/12 07:05:02;;;;;;;2.30;0.90;;;15.90;70.30;;;;;;5006517;28;20042;-71
2023/03/12 07:07:28;;;;;;;2.58;1.00;;;15.90;70.70;;;;;;5005575;28;20427;-71
2023/03/12 07:09:53;;;;;;;2.33;1.00;;;15.90;70.30;;;;;;4311338;28;10000727;-71
2023/03/12 07:12:19;;;;;;;1.15;0.82;;;15.90;70.00;;;;;;5004699;28;20042;-70
2023/03/12 07:14:44;;;;;;;2.90;1.15;;;15.90;69.60;;;;;;5018116;28;20557;-71
2023/03/12 07:17:10;;;;;;;1.50;1.17;;;15.90;69.60;;;;;;5017206;28;20046;-71
2023/03/12 07:19:35;;;;;;;1.30;0.90;;;15.90;69.90;;;;;;5003222;28;20066;-70
2023/03/12 07:22:01;;;;;;;2.75;1.17;;;15.90;69.90;;;;;;5003642;28;20045;-70
2023/03/12 07:24:27;;;;;;;1.30;1.05;;;15.90;69.90;;;;;;5019660;28;20300;-71
2023/03/12 07:26:52;;;;;;;1.95;0.93;;;15.90;69.70;;;;;;4999685;28;20050;-71
2023/03/12 07:29:18;;;;;;;1.33;1.13;;;15.90;69.90;;;;;;5001781;28;20113;-71
2023/03/12 07:31:43;;;;;;;1.90;1.10;;;15.90;69.50;;;;;;5003246;28;20038;-71
2023/03/12 07:34:09;;;;;;;2.00;1.20;;;15.90;69.60;;;;;;5001879;28;20045;-71
2023/03/12 07:36:34;;;;;;;1.52;1.00;;;15.90;70.30;;;;;;5003299;28;20511;-71
2023/03/12 07:39:00;;;;;;;2.28;1.10;;;16.00;70.10;;;;;;5033388;28;20144;-70
2023/03/12 07:41:25;;;;;;;1.45;0.90;;;16.00;69.70;;;;;;4997683;28;20046;-70
2023/03/12 07:43:51;;;;;;;1.92;1.02;;;16.00;70.80;;;;;;5002625;28;20046;-70
2023/03/12 07:46:17;;;;;;;2.67;1.33;;;16.00;70.30;;;;;;5004001;28;20049;-70
2023/03/12 07:48:42;;;;;;;1.13;0.80;;;16.00;70.90;;;;;;5002954;28;20129;-70
2023/03/12 07:51:08;;;;;;;1.60;1.20;;;16.00;70.60;;;;;;5002557;28;20048;-70
2023/03/12 07:53:33;;;;;;;1.23;0.90;;;16.00;70.30;;;;;;5002293;28;20071;-71
2023/03/12 07:55:59;;;;;;;1.60;0.80;;;16.00;70.20;;;;;;5002455;28;20045;-70
2023/03/12 07:58:25;;;;;;;1.60;1.20;;;16.00;70.40;;;;;;4998118;28;20076;-70
2023/03/12 08:00:52;;;;;;;2.00;1.00;;;16.00;70.50;;;;;;5002907;28;20468;-70
2023/03/12 08:03:18;;;;;;;1.25;0.90;;;16.00;70.10;;;;;;5017824;28;20066;-70
2023/03/12 08:05:43;;;;;;;1.48;1.10;;;16.00;70.30;;;;;;5001864;28;20551;-70
2023/03/12 08:08:09;;;;;;;1.17;1.00;;;16.10;70.60;;;;;;5001161;28;20054;-70
2023/03/12 08:10:35;;;;;;;1.58;1.15;;;16.00;71.10;;;;;;5001677;28;20500;-71
2023/03/12 08:13:00;;;;;;;1.30;0.90;;;16.00;70.60;;;;;;4988179;28;20057;-71
2023/03/12 08:15:26;;;;;;;2.60;1.20;;;16.10;70.30;;;;;;5005959;28;20050;-70
2023/03/12 08:17:52;;;;;;;2.05;1.30;;;16.10;70.20;;;;;;5005397;28;20060;-70
2023/03/12 08:20:17;;;;;;;1.90;0.88;;;16.10;70.30;;;;;;5005498;28;20034;-71
2023/03/12 08:22:43;;;;;;;2.67;1.00;;;16.10;69.70;;;;;;5005501;28;20037;-71
2023/03/12 08:25:09;;;;;;;2.28;1.13;;;16.10;69.80;;;;;;5005936;28;20092;-70
2023/03/12 08:27:34;;;;;;;1.50;1.00;;;16.10;69.80;;;;;;5007181;28;20033;-71
2023/03/12 08:30:00;;;;;;;1.17;0.90;;;16.10;69.90;;;;;;5002990;28;20137;-70
2023/03/12 08:32:26;;;;;;;0.90;0.80;;;16.10;70.00;;;;;;5001833;28;20045;-70
2023/03/12 08:34:51;;;;;;;1.25;1.00;;;16.10;70.00;;;;;;5003695;28;20107;-70
2023/03/12 08:37:17;;;;;;;1.88;0.95;;;16.10;70.00;;;;;;5005235;28;20065;-71
2023/03/12 08:39:43;;;;;;;1.13;0.90;;;16.10;69.90;;;;;;5001554;28;20085;-71
2023/03/12 08:42:08;;;;;;;1.63;1.23;;;16.10;69.60;;;;;;5005467;28;20080;-70
2023/03/12 08:44:34;;;;;;;0.80;0.77;;;16.10;69.70;;;;;;5002416;28;20050;-71
2023/03/12 08:46:59;;;;;;;0.93;0.80;;;16.10;69.60;;;;;;5035636;28;20156;-70
2023/03/12 08:49:25;;;;;;;2.25;1.10;;;16.10;69.70;;;;;;5003701;28;20034;-70
2023/03/12 08:51:51;;;;;;;2.70;0.80;;;16.10;69.70;;;;;;5005403;28;20149;-71
2023/03/12 08:54:17;;;;;;;1.60;1.08;;;16.10;69.70;;;;;;5005082;28;20045;-70
2023/03/12 08:56:45;;;;;;;1.80;1.25;;;16.10;69.60;;;;;;5003381;28;20030;-70
2023/03/12 08:59:11;;;;;;;1.88;1.00;;;16.20;69.80;;;;;;5005027;28;20080;-70
2023/03/12 09:01:36;;;;;;;1.10;0.93;;;16.20;69.60;;;;;;5004239;28;20042;-71
2023/03/12 09:04:03;;;;;;;1.15;1.05;;;16.20;69.40;;;;;;5003525;28;20049;-70
2023/03/12 09:06:28;;;;;;;2.42;1.10;;;16.30;69.30;;;;;;5019804;28;20590;-70
2023/03/12 09:08:54;;;;;;;1.80;0.93;;;16.30;69.10;;;;;;5002710;28;20083;-71
2023/03/12 09:11:20;;;;;;;1.95;1.13;;;16.30;69.20;;;;;;5003435;28;20045;-71
2023/03/12 09:13:45;;;;;;;1.52;0.90;;;16.30;69.20;;;;;;5002749;28;20054;-71
2023/03/12 09:16:11;;;;;;;2.00;1.30;;;16.30;69.10;;;;;;5004584;28;20602;-71
2023/03/12 09:18:36;;;;;;;1.67;1.25;;;16.20;69.00;;;;;;5004202;28;20053;-71
2023/03/12 09:21:02;;;;;;;2.75;1.10;;;16.30;69.10;;;;;;5004272;28;20484;-70
2023/03/12 09:23:28;;;;;;;1.30;1.20;;;16.30;69.00;;;;;;5001095;28;20100;-70
2023/03/12 09:25:53;;;;;;;1.95;1.33;;;16.30;69.10;;;;;;4984936;28;20046;-70
2023/03/12 09:28:19;;;;;;;1.52;1.02;;;16.30;69.00;;;;;;5003945;28;20880;-71
2023/03/12 09:30:45;;;;;;;1.63;1.20;;;16.30;68.90;;;;;;5009253;28;20458;-72
2023/03/12 09:33:11;;;;;;;1.40;0.93;;;16.30;69.00;;;;;;5007282;28;20041;-71
2023/03/12 09:35:36;;;;;;;1.52;1.25;;;16.30;69.00;;;;;;5006962;28;20072;-72
2023/03/12 09:38:02;;;;;;;2.17;0.90;;;16.30;69.00;;;;;;4991415;28;20042;-72
2023/03/12 09:40:31;;;;;;;13.02;6.60;;;16.30;69.20;;;;;;5007271;28;20499;-72
2023/03/12 09:42:59;;;;;;;37.10;19.40;;;16.30;69.50;;;;;;5007139;28;20038;-72
2023/03/12 09:45:30;;;;;;;22.88;13.30;;;16.30;69.70;;;;;;5037840;28;20285;-72
2023/03/12 09:48:00;;;;;;;12.75;7.75;;;16.30;69.80;;;;;;5038152;28;20573;-72
2023/03/12 09:50:29;;;;;;;11.68;7.10;;;16.40;70.30;;;;;;5007075;28;20038;-70
2023/03/12 09:53:14;;;;;;;14.07;7.82;;;16.40;70.20;;;;;;5006416;28;20717;-70
2023/03/12 09:55:42;;;;;;;15.32;8.05;;;16.40;70.20;;;;;;5002881;28;20068;-71
2023/03/12 09:58:33;;;;;;;13.95;8.35;;;16.40;70.00;;;;;;4989449;28;20050;-70
2023/03/12 10:01:33;;;;;;;13.75;7.50;;;16.40;69.80;;;;;;5021735;28;20068;-71
2023/03/12 10:04:23;;;;;;;16.30;8.43;;;16.40;70.10;;;;;;5006944;28;20141;-71
2023/03/12 10:07:08;;;;;;;12.85;7.30;;;16.40;70.20;;;;;;5007021;28;20095;-70
2023/03/12 10:09:47;;;;;;;9.65;5.40;;;16.30;70.10;;;;;;5009744;28;20057;-70
2023/03/12 10:12:37;;;;;;;6.75;4.40;;;16.40;70.00;;;;;;5024281;28;20045;-70
2023/03/12 10:15:40;;;;;;;5.78;3.83;;;16.40;70.80;;;;;;5037083;28;20054;-70
2023/03/12 10:18:35;;;;;;;4.55;3.80;;;16.40;69.90;;;;;;4990914;28;20100;-71
2023/03/12 10:21:01;;;;;;;6.00;3.58;;;16.30;69.90;;;;;;5021708;28;20534;-70
2023/03/12 10:23:37;;;;;;;3.42;2.72;;;16.40;69.90;;;;;;5007092;28;20033;-69
2023/03/12 10:26:20;;;;;;;4.97;3.08;;;16.40;70.00;;;;;;4990023;28;20176;-69
2023/03/12 10:28:54;;;;;;;3.38;2.40;;;16.40;70.10;;;;;;5031821;28;20088;-70
2023/03/12 10:31:25;;;;;;;4.75;2.75;;;16.50;69.90;;;;;;5036070;28;20125;-69
2023/03/12 10:33:55;;;;;;;5.30;2.90;;;16.40;70.00;;;;;;4678328;28;9999797;-70
2023/03/12 10:36:28;;;;;;;3.97;2.65;;;16.40;70.60;;;;;;5015397;28;20451;-71
2023/03/12 10:38:54;;;;;;;6.45;3.03;;;16.40;70.90;;;;;;5013605;28;20041;-71
2023/03/12 10:41:21;;;;;;;3.58;2.65;;;16.40;71.50;;;;;;4998689;28;20046;-70
2023/03/12 10:43:47;;;;;;;4.03;2.67;;;16.40;71.50;;;;;;5001568;28;20098;-70
2023/03/12 10:46:45;;;;;;;3.05;2.13;;;16.40;71.50;;;;;;4999336;28;20567;-71
2023/03/12 10:49:37;;;;;;;4.25;2.53;;;16.40;71.40;;;;;;4998321;28;20038;-71
2023/03/12 10:52:15;;;;;;;2.95;2.42;;;16.50;71.30;;;;;;4999291;28;20058;-70
2023/03/12 10:54:43;;;;;;;3.80;2.40;;;16.50;71.50;;;;;;5000779;28;20178;-72
2023/03/12 10:57:09;;;;;;;3.95;2.42;;;16.50;71.70;;;;;;5000910;28;20541;-70
2023/03/12 10:59:41;;;;;;;3.25;2.38;;;16.50;71.60;;;;;;5001447;28;20045;-71
2023/03/12 11:02:39;;;;;;;2.78;2.33;;;16.50;71.60;;;;;;4997604;28;20042;-71
2023/03/12 11:05:21;;;;;;;2.80;2.17;;;16.50;71.60;;;;;;5015148;28;20064;-71
2023/03/12 11:07:47;;;;;;;3.17;2.08;;;16.50;71.60;;;;;;4647694;28;10000036;-71
2023/03/12 11:10:21;;;;;;;3.50;2.17;;;16.50;71.60;;;;;;4986451;28;20775;-70
2023/03/12 11:12:57;;;;;;;2.75;1.85;;;16.50;71.60;;;;;;5005523;28;20034;-71
2023/03/12 11:15:25;;;;;;;3.80;2.45;;;16.60;71.40;;;;;;5004976;28;20133;-71
2023/03/12 11:17:51;;;;;;;4.90;2.85;;;16.60;71.40;;;;;;5001964;28;20045;-71
2023/03/12 11:20:27;;;;;;;5.22;2.10;;;16.60;72.90;;;;;;4987487;28;20046;-71
2023/03/12 11:22:52;;;;;;;3.33;2.20;;;16.60;73.40;;;;;;4999834;28;20038;-71
2023/03/12 11:25:25;;;;;;;2.92;1.92;;;16.70;73.30;;;;;;4999112;28;20049;-70
2023/03/12 11:28:00;;;;;;;4.18;2.33;;;16.70;73.50;;;;;;5019045;28;20057;-70
2023/03/12 11:30:31;;;;;;;2.33;2.13;;;16.70;73.60;;;;;;5019887;28;20069;-71
2023/03/12 11:32:57;;;;;;;3.92;2.30;;;16.70;73.20;;;;;;4985795;28;20042;-70
2023/03/12 11:35:37;;;;;;;3.72;2.45;;;16.70;73.20;;;;;;5005369;28;20561;-71
2023/03/12 11:38:18;;;;;;;6.68;2.13;;;16.70;73.20;;;;;;5004499;28;20054;-70
2023/03/12 11:40:56;;;;;;;4.53;2.00;;;16.70;73.10;;;;;;4987233;28;20058;-72
2023/03/12 11:43:27;;;;;;;3.05;1.60;;;16.80;73.00;;;;;;5003303;28;20095;-70
2023/03/12 11:46:05;;;;;;;2.53;1.45;;;16.80;72.70;;;;;;5001829;28;20529;-71
2023/03/12 11:48:42;;;;;;;2.80;1.58;;;16.70;72.90;;;;;;5005572;28;20527;-70
2023/03/12 11:51:16;;;;;;;3.88;1.75;;;16.70;73.00;;;;;;5001309;28;20049;-71
2023/03/12 11:53:57;;;;;;;5.55;2.45;;;16.70;72.80;;;;;;5002470;28;20088;-71
2023/03/12 11:56:45;;;;;;;3.15;1.95;;;16.80;73.30;;;;;;5000888;28;20061;-71
2023/03/12 11:59:22;;;;;;;2.58;1.92;;;16.80;73.70;;;;;;5000689;28;20456;-73
2023/03/12 12:01:59;;;;;;;4.13;2.15;;;16.80;75.30;;;;;;5001927;28;20128;-73
2023/03/12 12:04:48;;;;;;;3.22;1.75;;;16.80;75.00;;;;;;4999800;28;20058;-72
2023/03/12 12:07:44;;;;;;;4.78;1.92;;;16.80;73.70;;;;;;4997238;28;20125;-73
2023/03/12 12:11:06;;;;;;;3.20;1.67;;;16.90;73.90;;;;;;4651854;28;10001542;-72
2023/03/12 12:13:35;;;;;;;4.00;2.10;;;16.90;74.20;;;;;;4939412;28;20135;-72
2023/03/12 12:16:25;;;;;;;2.58;1.80;;;16.90;73.80;;;;;;4936941;28;20396;-73
2023/03/12 12:19:17;;;;;;;2.40;1.55;;;16.90;73.30;;;;;;4940125;28;20035;-72
2023/03/12 12:22:32;;;;;;;2.20;1.70;;;17.00;73.00;;;;;;4926380;28;20086;-72
2023/03/12 12:25:24;;;;;;;2.05;1.55;;;16.90;73.10;;;;;;4924710;28;20085;-73
2023/03/12 12:27:55;;;;;;;1.75;1.40;;;16.90;73.20;;;;;;4937622;28;20074;-72
2023/03/12 12:30:49;;;;;;;3.42;1.65;;;16.90;73.20;;;;;;4924013;29;20501;-72
2023/03/12 12:33:55;;;;;;;1.60;1.23;;;16.90;73.40;;;;;;4950117;28;20650;-72
2023/03/12 12:36:21;;;;;;;3.58;1.65;;;16.80;73.10;;;;;;4908185;28;20039;-72
2023/03/12 12:39:04;;;;;;;2.17;1.75;;;16.90;73.00;;;;;;4922340;28;20043;-72
2023/03/12 12:41:32;;;;;;;2.10;1.80;;;16.90;72.90;;;;;;4921999;28;20044;-72
2023/03/12 12:44:04;;;;;;;2.55;1.60;;;16.80;72.80;;;;;;4948257;28;20119;-73
2023/03/12 12:46:33;;;;;;;3.97;1.95;;;16.80;72.70;;;;;;5000169;28;20034;-72
2023/03/12 12:49:02;;;;;;;2.70;1.52;;;16.80;72.80;;;;;;4998910;28;20104;-72
2023/03/12 12:51:33;;;;;;;3.08;1.40;;;16.80;72.80;;;;;;4999995;28;20077;-71
2023/03/12 12:54:12;;;;;;;4.57;1.90;;;16.80;72.90;;;;;;4980483;28;20208;-71
2023/03/12 12:56:57;;;;;;;2.38;1.30;;;16.80;73.10;;;;;;4997543;28;20053;-73